Change the Weather History Date:

Wednesday, September 18, 2013

  Actual Average Record
Temperature  
Mean Temperature 79 °F -  
Max Temperature 90 °F 79 °F 100 °F (1953)
Min Temperature 68 °F 52 °F 37 °F (1973)
Cooling Degree Days 14    
Growing Degree Days 29 (Base 50)    
Moisture  
Dew Point 65 °F    
Average Humidity 65    
Maximum Humidity 87    
Minimum Humidity 44    
Precipitation  
Precipitation 0.00 in - - ()
Sea Level Pressure  
Sea Level Pressure 29.80 in    
Wind  
Wind Speed 14 mph (South)    
Max Wind Speed 25 mph    
Max Gust Speed 32 mph    
Visibility 10 miles    
Events      
Averages and records for this station are not official NWS values.
T = Trace of Precipitation, MM = Missing Value Source: NWS Daily Summary

Daily Weather History Graph

Daily Weather History Graph

Search for Another Location

Airport or City:

Trip Planner

Search our weather history database for the weather conditions in past years. The results will help you decide how hot, cold, wet, or windy it might be!

Date:

Astronomy

Sep. 18, 2013 Rise Set
Actual Time 7:10 AM CDT 7:30 PM CDT
Civil Twilight 6:43 AM CDT 7:57 PM CDT
Nautical Twilight 6:11 AM CDT 8:29 PM CDT
Astronomical Twilight 5:39 AM CDT 9:02 PM CDT
Moon 6:54 PM CDT (9/18) 6:14 AM CDT (9/18)
Length of Visible Light 13h 13m
Length of Day
12h 19m
Waxing Gibbous, 99% of the Moon is Illuminated
Sep 18
Waxing Gibbous
Sep 19
Full
Sep 26
Last Quarter
Oct 4
New
Oct 11
First Quarter

Hourly Weather History & Observations

Time (CDT) Temp. Heat Index Dew Point Humidity Pressure Visibility Wind Dir Wind Speed Gust Speed Precip Events Conditions
12:15 AM 70.7 °F - 65.5 °F 83% 29.89 in 10.0 mi SSE 13.8 mph 18.4 mph N/A   Clear
12:35 AM 70.3 °F - 65.5 °F 85% 29.89 in 10.0 mi South 13.8 mph 21.9 mph N/A   Clear
12:55 AM 70.2 °F - 65.3 °F 85% 29.89 in 10.0 mi SSE 13.8 mph 21.9 mph N/A   Clear
1:15 AM 69.8 °F - 65.1 °F 85% 29.89 in 10.0 mi South 16.1 mph 21.9 mph N/A   Clear
1:35 AM 69.8 °F - 64.9 °F 84% 29.89 in 10.0 mi South 15.0 mph - N/A   Clear
1:55 AM 69.8 °F - 64.8 °F 84% 29.88 in 10.0 mi South 12.7 mph 18.4 mph N/A   Clear
2:15 AM 69.4 °F - 64.6 °F 84% 29.88 in 10.0 mi South 12.7 mph - N/A   Clear
2:35 AM 69.3 °F - 64.6 °F 85% 29.88 in 10.0 mi South 13.8 mph - N/A   Clear
2:55 AM 69.1 °F - 64.6 °F 86% 29.88 in 10.0 mi South 11.5 mph - N/A   Clear
3:15 AM 68.9 °F - 64.6 °F 86% 29.87 in 10.0 mi South 10.4 mph - N/A   Clear
3:35 AM 68.9 °F - 64.4 °F 86% 29.86 in 10.0 mi South 10.4 mph - N/A   Clear
3:55 AM 68.9 °F - 64.6 °F 86% 29.85 in 10.0 mi SSE 9.2 mph - N/A   Clear
4:15 AM 68.5 °F - 64.4 °F 87% 29.85 in 7.0 mi SSE 8.1 mph - N/A   Clear
4:35 AM 68.4 °F - 64.4 °F 87% 29.85 in 7.0 mi SSE 9.2 mph - N/A   Clear
4:55 AM 68.4 °F - 64.4 °F 87% 29.84 in 7.0 mi South 9.2 mph - N/A   Clear
5:15 AM 68.7 °F - 64.6 °F 87% 29.84 in 7.0 mi South 9.2 mph - N/A   Clear
5:35 AM 68.9 °F - 64.6 °F 86% 29.84 in 10.0 mi SSE 9.2 mph - N/A   Clear
5:55 AM 68.9 °F - 64.4 °F 86% 29.83 in 7.0 mi SSE 9.2 mph - N/A   Clear
6:15 AM 68.9 °F - 64.6 °F 86% 29.83 in 10.0 mi SSE 10.4 mph - N/A   Clear
6:35 AM 70.0 °F - 64.9 °F 84% 29.83 in 10.0 mi South 11.5 mph 16.1 mph N/A   Clear
6:55 AM 70.3 °F - 65.1 °F 83% 29.83 in 10.0 mi South 11.5 mph - N/A   Clear
7:15 AM 70.2 °F - 64.9 °F 83% 29.84 in 10.0 mi South 10.4 mph - N/A   Clear
7:35 AM 70.7 °F - 65.1 °F 82% 29.84 in 10.0 mi South 11.5 mph 17.3 mph N/A   Clear
7:55 AM 72.0 °F - 65.3 °F 79% 29.84 in 10.0 mi South 12.7 mph 18.4 mph N/A   Clear
8:15 AM 72.7 °F - 65.5 °F 78% 29.84 in 10.0 mi South 13.8 mph 19.6 mph N/A   Clear
8:35 AM 73.8 °F - 65.8 °F 76% 29.84 in 10.0 mi South 17.3 mph 24.2 mph N/A   Clear
8:55 AM 75.2 °F - 66.2 °F 73% 29.84 in 10.0 mi South 15.0 mph 21.9 mph N/A   Clear
9:15 AM 76.3 °F - 66.4 °F 71% 29.83 in 10.0 mi South 15.0 mph - N/A   Clear
9:35 AM 77.4 °F - 66.6 °F 69% 29.84 in 10.0 mi South 17.3 mph 21.9 mph N/A   Clear
9:55 AM 78.3 °F - 66.4 °F 67% 29.83 in 10.0 mi South 15.0 mph 23.0 mph N/A   Clear
10:15 AM 79.7 °F - 66.4 °F 64% 29.83 in 10.0 mi SSW 15.0 mph 24.2 mph N/A   Clear
10:35 AM 81.0 °F 83.2 °F 66.6 °F 61% 29.83 in 10.0 mi South 17.3 mph 20.7 mph N/A   Clear
10:55 AM 81.5 °F 83.7 °F 66.4 °F 60% 29.83 in 10.0 mi SSW 20.7 mph 25.3 mph N/A   Clear
11:15 AM 82.4 °F 84.6 °F 66.2 °F 58% 29.82 in 10.0 mi South 21.9 mph 27.6 mph N/A   Clear
11:35 AM 83.3 °F 85.7 °F 66.7 °F 57% 29.80 in 10.0 mi South 15.0 mph 20.7 mph N/A   Clear
11:55 AM 84.6 °F 86.8 °F 66.2 °F 54% 29.80 in 10.0 mi South 16.1 mph 24.2 mph N/A   Clear
12:15 PM 85.5 °F 87.6 °F 66.2 °F 52% 29.80 in 10.0 mi South 18.4 mph - N/A   Clear
12:35 PM 86.4 °F 88.4 °F 65.8 °F 50% 29.79 in 10.0 mi SSW 20.7 mph 25.3 mph N/A   Clear
12:55 PM - - - N/A% 29.78 in 10.0 mi South 19.6 mph 26.5 mph N/A   Clear
1:15 PM - - - N/A% - - North - - N/A   Unknown
1:35 PM 89.4 °F 93.1 °F 67.8 °F 49% 29.76 in 10.0 mi SSW 20.7 mph 25.3 mph N/A   Clear
1:55 PM 88.2 °F 91.3 °F 67.3 °F 50% 29.75 in 10.0 mi SSW 23.0 mph 28.8 mph N/A   Clear
2:15 PM 88.3 °F 91.2 °F 66.7 °F 49% 29.74 in 10.0 mi South 21.9 mph 31.1 mph N/A   Scattered Clouds
2:35 PM 88.9 °F 91.4 °F 66.2 °F 47% 29.74 in 10.0 mi South 21.9 mph 29.9 mph N/A   Scattered Clouds
2:55 PM 89.4 °F 92.3 °F 66.6 °F 47% 29.73 in 10.0 mi South 21.9 mph 28.8 mph N/A   Clear
3:15 PM 90.0 °F 92.8 °F 66.6 °F 46% 29.73 in 10.0 mi South 20.7 mph 31.1 mph N/A   Clear
3:35 PM 90.5 °F 93.3 °F 66.6 °F 45% 29.72 in 10.0 mi SSW 23.0 mph 32.2 mph N/A   Clear
3:55 PM 90.5 °F 93.3 °F 66.2 °F 45% 29.72 in 10.0 mi SSW 23.0 mph 32.2 mph N/A   Clear
4:15 PM 90.5 °F 92.9 °F 65.7 °F 44% 29.72 in 10.0 mi SSW 25.3 mph 29.9 mph N/A   Clear
4:35 PM 90.1 °F 92.7 °F 66.2 °F 45% 29.72 in 10.0 mi SSW 16.1 mph 27.6 mph N/A   Clear
4:55 PM 90.3 °F 93.0 °F 66.4 °F 45% 29.72 in 10.0 mi SSW 17.3 mph 27.6 mph N/A   Clear
5:15 PM 90.1 °F 93.1 °F 66.7 °F 46% 29.72 in 10.0 mi SSW 15.0 mph 23.0 mph N/A   Clear
5:35 PM 89.8 °F 92.1 °F 65.8 °F 45% 29.72 in 10.0 mi SSW 15.0 mph 25.3 mph N/A   Scattered Clouds
5:55 PM 89.1 °F 91.7 °F 66.6 °F 47% 29.72 in 10.0 mi South 15.0 mph 23.0 mph N/A   Scattered Clouds
6:15 PM 88.9 °F 91.4 °F 66.4 °F 47% 29.72 in 10.0 mi South 13.8 mph - N/A   Scattered Clouds
6:35 PM 88.0 °F 90.3 °F 66.0 °F 48% 29.72 in 10.0 mi South 12.7 mph 21.9 mph N/A   Clear
6:55 PM 86.7 °F 89.0 °F 66.0 °F 50% 29.72 in 10.0 mi South 13.8 mph 18.4 mph N/A   Clear
7:15 PM 86.0 °F 87.9 °F 65.3 °F 50% 29.72 in 10.0 mi South 12.7 mph - N/A   Clear
7:35 PM 85.1 °F 86.6 °F 64.8 °F 50% 29.73 in 10.0 mi South 11.5 mph - N/A   Clear
7:55 PM 84.0 °F 85.6 °F 64.6 °F 52% 29.72 in 10.0 mi South 11.5 mph - N/A   Clear
8:15 PM 83.3 °F 84.6 °F 64.2 °F 52% 29.73 in 10.0 mi South 9.2 mph - N/A   Clear
8:35 PM 81.9 °F 83.4 °F 64.0 °F 55% 29.74 in 10.0 mi SSE 8.1 mph - N/A   Clear
8:55 PM 81.1 °F 82.7 °F 63.9 °F 56% 29.74 in 10.0 mi SSE 10.4 mph - N/A   Clear
9:15 PM 80.6 °F 82.2 °F 63.9 °F 57% 29.74 in 10.0 mi South 12.7 mph - N/A   Clear
9:35 PM 80.8 °F 82.2 °F 63.5 °F 56% 29.75 in 10.0 mi South 15.0 mph 19.6 mph N/A   Clear
9:55 PM 80.2 °F 81.8 °F 63.5 °F 57% 29.75 in 10.0 mi South 13.8 mph 17.3 mph N/A   Clear
10:15 PM 79.9 °F - 63.7 °F 58% 29.75 in 10.0 mi South 15.0 mph 23.0 mph N/A   Clear
10:35 PM 79.5 °F - 64.2 °F 59% 29.76 in 10.0 mi South 15.0 mph 20.7 mph N/A   Clear
10:55 PM 78.4 °F - 64.6 °F 62% 29.76 in 10.0 mi South 12.7 mph 23.0 mph N/A   Clear
11:15 PM 78.8 °F - 64.8 °F 62% 29.76 in 10.0 mi South 15.0 mph 24.2 mph N/A   Clear
11:35 PM 78.8 °F - 64.4 °F 61% 29.76 in 10.0 mi South 15.0 mph 20.7 mph N/A   Clear
11:55 PM 78.4 °F - 63.9 °F 61% 29.77 in 10.0 mi South 16.1 mph 20.7 mph N/A   Clear